createdAt,value
2023-10-17T00:00:30.169Z,61.07
2023-10-17T00:01:35.991Z,61.13
2023-10-17T00:02:38.789Z,61.28
2023-10-17T00:03:41.983Z,61.24
2023-10-17T00:04:44.545Z,61.20
2023-10-17T00:05:47.051Z,61.30
2023-10-17T00:06:51.942Z,61.27
2023-10-17T00:07:54.311Z,61.21
2023-10-17T00:08:57.109Z,61.33
2023-10-17T00:10:01.320Z,61.09
2023-10-17T00:11:13.063Z,61.18
2023-10-17T00:12:19.897Z,61.13
2023-10-17T00:13:39.841Z,61.16
2023-10-17T00:14:55.572Z,61.12
2023-10-17T00:15:58.075Z,61.15
2023-10-17T00:17:00.490Z,61.06
2023-10-17T00:18:13.578Z,61.12
2023-10-17T00:19:18.011Z,61.17
2023-10-17T00:20:25.665Z,61.11
2023-10-17T00:21:29.020Z,61.17
2023-10-17T00:22:31.410Z,61.30
2023-10-17T00:23:33.726Z,61.10
2023-10-17T00:24:36.470Z,61.24
2023-10-17T00:25:43.652Z,61.38
2023-10-17T00:26:48.781Z,61.19
2023-10-17T00:27:51.966Z,61.12
2023-10-17T00:28:56.744Z,61.10
2023-10-17T00:30:00.984Z,61.31
2023-10-17T00:31:06.070Z,61.31
2023-10-17T00:32:10.867Z,61.22
2023-10-17T00:33:14.144Z,61.21
2023-10-17T00:34:17.490Z,61.31
2023-10-17T00:35:27.982Z,61.28
2023-10-17T00:36:30.471Z,61.43
2023-10-17T00:37:33.726Z,61.54
2023-10-17T00:38:36.884Z,61.44
2023-10-17T00:39:40.191Z,61.39
2023-10-17T00:40:50.842Z,61.54
2023-10-17T00:42:11.066Z,61.39
2023-10-17T00:43:13.716Z,61.45
2023-10-17T00:44:16.345Z,61.45
2023-10-17T00:45:18.708Z,61.44
2023-10-17T00:46:36.544Z,61.55
2023-10-17T00:47:43.512Z,61.51
2023-10-17T00:48:49.476Z,61.64
2023-10-17T00:49:52.125Z,61.63
2023-10-17T00:51:02.157Z,61.65
2023-10-17T00:52:05.580Z,61.67
2023-10-17T00:53:08.260Z,61.66
2023-10-17T00:54:12.913Z,61.70
2023-10-17T00:55:15.810Z,61.56
2023-10-17T00:56:18.391Z,61.74
2023-10-17T00:57:28.486Z,61.81
2023-10-17T00:58:31.542Z,61.72
2023-10-17T00:59:33.888Z,61.83
2023-10-17T01:00:42.389Z,61.84
2023-10-17T01:01:45.061Z,61.77
2023-10-17T01:02:48.030Z,61.75
2023-10-17T01:03:56.091Z,61.70
2023-10-17T01:05:00.903Z,61.59
2023-10-17T01:06:15.670Z,61.58
2023-10-17T01:07:31.111Z,61.67
2023-10-17T01:08:46.208Z,61.46
2023-10-17T01:09:49.556Z,61.47
2023-10-17T01:10:52.749Z,61.70
2023-10-17T01:11:58.572Z,61.67
2023-10-17T01:13:04.799Z,61.71
2023-10-17T01:14:07.256Z,61.65
2023-10-17T01:15:20.531Z,61.65
2023-10-17T01:16:25.812Z,61.73
2023-10-17T01:17:29.559Z,61.62
2023-10-17T01:18:32.692Z,61.82
2023-10-17T01:19:37.344Z,61.90
2023-10-17T01:20:39.723Z,61.86
2023-10-17T01:21:43.349Z,61.85
2023-10-17T01:22:46.851Z,61.94
2023-10-17T01:23:55.233Z,61.91
2023-10-17T01:24:57.925Z,61.77
2023-10-17T01:26:05.939Z,61.88
2023-10-17T01:27:14.480Z,61.88
2023-10-17T01:28:16.914Z,61.79
2023-10-17T01:29:19.980Z,61.75
2023-10-17T01:30:24.101Z,61.52
2023-10-17T01:31:27.255Z,61.62
2023-10-17T01:32:31.120Z,61.71
2023-10-17T01:33:34.706Z,61.64
2023-10-17T01:34:41.268Z,61.70
2023-10-17T01:35:45.767Z,61.74
2023-10-17T01:36:48.124Z,61.71
2023-10-17T01:37:50.851Z,61.61
2023-10-17T01:38:54.215Z,61.68
2023-10-17T01:39:59.053Z,61.68
2023-10-17T01:41:01.487Z,61.75
2023-10-17T01:42:05.628Z,61.68
2023-10-17T01:43:08.048Z,61.51
2023-10-17T01:44:11.162Z,61.58
2023-10-17T01:45:14.818Z,61.58
2023-10-17T01:46:23.093Z,61.47
2023-10-17T01:47:27.505Z,61.54
2023-10-17T01:48:29.933Z,61.43
2023-10-17T01:49:33.843Z,61.50
2023-10-17T01:50:36.263Z,61.66
2023-10-17T01:51:39.055Z,61.69
2023-10-17T01:52:43.734Z,61.78
2023-10-17T01:53:55.646Z,61.70
2023-10-17T01:55:00.851Z,61.79
2023-10-17T01:56:15.411Z,61.83
2023-10-17T01:57:18.721Z,61.82
2023-10-17T01:58:24.661Z,61.71
2023-10-17T01:59:27.698Z,61.81
2023-10-17T02:00:36.324Z,61.82
2023-10-17T02:01:45.853Z,61.91
2023-10-17T02:02:51.012Z,61.89
2023-10-17T02:03:53.933Z,61.85
2023-10-17T02:04:56.424Z,61.83
2023-10-17T02:06:00.334Z,61.76
2023-10-17T02:07:04.097Z,61.75
2023-10-17T02:08:12.819Z,61.89
2023-10-17T02:09:24.810Z,61.86
2023-10-17T02:10:31.218Z,61.80
2023-10-17T02:11:39.104Z,61.77
2023-10-17T02:12:43.274Z,61.80
2023-10-17T02:13:46.917Z,61.79
2023-10-17T02:14:49.404Z,61.85
2023-10-17T02:15:52.312Z,61.87
2023-10-17T02:16:57.278Z,61.90
2023-10-17T02:17:59.856Z,61.87
2023-10-17T02:19:07.103Z,61.76
2023-10-17T02:20:18.914Z,61.78
2023-10-17T02:21:25.025Z,61.84
2023-10-17T02:22:27.527Z,61.71
2023-10-17T02:23:29.917Z,61.73
2023-10-17T02:24:34.644Z,61.68
2023-10-17T02:25:38.714Z,61.70
2023-10-17T02:26:56.403Z,61.61
2023-10-17T02:28:01.543Z,61.63
2023-10-17T02:29:12.129Z,61.44
2023-10-17T02:30:15.467Z,61.45
2023-10-17T02:31:19.372Z,61.50
2023-10-17T02:32:22.862Z,61.59
2023-10-17T02:33:30.104Z,61.45
2023-10-17T02:34:32.941Z,61.53
2023-10-17T02:35:42.426Z,61.66
2023-10-17T02:36:45.078Z,61.58
2023-10-17T02:37:49.098Z,61.73
2023-10-17T02:38:52.032Z,61.66
2023-10-17T02:39:54.607Z,61.78
2023-10-17T02:40:57.572Z,61.90
2023-10-17T02:42:09.793Z,62.00
2023-10-17T02:43:14.309Z,61.97
2023-10-17T02:44:20.643Z,62.01
2023-10-17T02:45:26.287Z,62.03
2023-10-17T02:46:29.139Z,62.03
2023-10-17T02:47:33.684Z,62.07
2023-10-17T02:48:40.738Z,62.01
2023-10-17T02:49:46.774Z,62.15
2023-10-17T02:51:00.522Z,62.17
2023-10-17T02:52:03.568Z,62.15
2023-10-17T02:53:06.074Z,62.19
2023-10-17T02:54:13.304Z,62.31
2023-10-17T02:55:15.804Z,62.47
2023-10-17T02:56:21.967Z,62.61
2023-10-17T02:57:25.931Z,62.70
2023-10-17T02:58:28.410Z,62.71
2023-10-17T02:59:31.165Z,62.80
2023-10-17T03:00:36.673Z,62.79
2023-10-17T03:01:41.749Z,62.78
2023-10-17T03:02:49.879Z,62.96
2023-10-17T03:03:52.526Z,62.90
2023-10-17T03:05:05.499Z,62.93
2023-10-17T03:06:10.072Z,62.93
2023-10-17T03:07:12.915Z,62.96
2023-10-17T03:08:19.201Z,62.91
2023-10-17T03:09:24.713Z,63.09
2023-10-17T03:10:40.833Z,63.18
2023-10-17T03:11:57.213Z,63.18
2023-10-17T03:13:06.923Z,63.12
2023-10-17T03:14:15.289Z,63.19
2023-10-17T03:15:21.117Z,63.08
2023-10-17T03:16:29.601Z,63.32
2023-10-17T03:17:33.812Z,63.22
2023-10-17T03:18:39.252Z,63.26
2023-10-17T03:19:41.845Z,63.14
2023-10-17T03:20:53.959Z,63.26
2023-10-17T03:22:18.298Z,63.47
2023-10-17T03:23:29.684Z,63.45
2023-10-17T03:24:40.237Z,63.32
2023-10-17T03:25:47.008Z,63.51
2023-10-17T03:26:55.876Z,63.53
2023-10-17T03:28:00.324Z,63.57
2023-10-17T03:29:03.001Z,63.66
2023-10-17T03:30:09.212Z,63.69
2023-10-17T03:31:22.359Z,63.59
2023-10-17T03:32:26.368Z,63.51
2023-10-17T03:33:28.921Z,63.56
2023-10-17T03:34:38.555Z,63.69
2023-10-17T03:36:01.879Z,63.54
2023-10-17T03:37:24.553Z,63.42
2023-10-17T03:38:33.370Z,63.40
2023-10-17T03:39:52.628Z,63.33
2023-10-17T03:40:56.138Z,63.29
2023-10-17T03:41:58.761Z,63.37
2023-10-17T03:43:14.675Z,63.41
2023-10-17T03:44:17.313Z,63.41
2023-10-17T03:45:36.450Z,63.33
2023-10-17T03:46:39.137Z,63.42
2023-10-17T03:47:42.225Z,63.45
2023-10-17T03:49:06.231Z,63.38
2023-10-17T03:50:11.885Z,63.18
2023-10-17T03:51:23.314Z,63.32
2023-10-17T03:52:25.966Z,63.43
2023-10-17T03:53:31.926Z,63.52
2023-10-17T03:54:40.869Z,63.79
2023-10-17T03:55:50.202Z,63.61
2023-10-17T03:57:04.239Z,63.69
2023-10-17T03:58:10.350Z,63.71
2023-10-17T03:59:16.796Z,63.71
2023-10-17T04:00:42.133Z,63.59
2023-10-17T04:01:49.520Z,63.68
2023-10-17T04:02:52.177Z,63.52
2023-10-17T04:03:57.439Z,63.45
2023-10-17T04:05:08.820Z,63.41
2023-10-17T04:06:11.256Z,63.46
2023-10-17T04:07:13.852Z,63.51
2023-10-17T04:08:18.833Z,63.58
2023-10-17T04:09:29.307Z,63.50
2023-10-17T04:10:41.344Z,63.58
2023-10-17T04:11:47.767Z,63.58
2023-10-17T04:12:51.102Z,63.63
2023-10-17T04:14:02.867Z,63.58
2023-10-17T04:15:08.565Z,63.70
2023-10-17T04:16:11.749Z,63.82
2023-10-17T04:17:16.623Z,63.88
2023-10-17T04:18:24.230Z,63.95
2023-10-17T04:19:28.013Z,63.91
2023-10-17T04:20:37.901Z,63.92
2023-10-17T04:21:47.570Z,64.01
2023-10-17T04:22:50.478Z,64.04
2023-10-17T04:23:53.223Z,64.00
2023-10-17T04:24:55.561Z,64.19
2023-10-17T04:25:58.628Z,64.18
2023-10-17T04:27:14.029Z,64.20
2023-10-17T04:28:18.377Z,64.04
2023-10-17T04:29:23.249Z,64.35
2023-10-17T04:30:31.606Z,64.21
2023-10-17T04:31:34.124Z,64.39
2023-10-17T04:32:40.095Z,64.40
2023-10-17T04:33:43.260Z,64.37
2023-10-17T04:34:48.714Z,64.47
2023-10-17T04:35:57.328Z,64.49
2023-10-17T04:37:04.539Z,64.39
2023-10-17T04:38:28.604Z,64.45
2023-10-17T04:39:37.432Z,64.48
2023-10-17T04:40:44.804Z,64.49
2023-10-17T04:41:50.567Z,64.56
2023-10-17T04:42:53.091Z,64.51
2023-10-17T04:43:56.310Z,64.56
2023-10-17T04:45:07.449Z,64.50
2023-10-17T04:46:10.479Z,64.39
2023-10-17T04:47:24.625Z,64.37
2023-10-17T04:48:36.984Z,64.53
2023-10-17T04:49:41.394Z,64.55
2023-10-17T04:50:57.961Z,64.63
2023-10-17T04:52:20.556Z,64.53
2023-10-17T04:53:30.226Z,64.61
2023-10-17T04:54:40.705Z,64.74
2023-10-17T04:56:01.344Z,64.65
2023-10-17T04:57:08.288Z,64.57
2023-10-17T04:58:29.352Z,64.46
2023-10-17T04:59:42.872Z,64.51
2023-10-17T05:01:05.344Z,64.52
2023-10-17T05:02:34.068Z,64.46
2023-10-17T05:03:51.992Z,64.53
2023-10-17T05:04:57.426Z,64.48
2023-10-17T05:06:20.313Z,64.58
2023-10-17T05:07:40.173Z,64.56
2023-10-17T05:09:02.059Z,64.54
2023-10-17T05:10:14.483Z,64.56
2023-10-17T05:11:35.550Z,64.60
2023-10-17T05:12:56.786Z,64.59
2023-10-17T05:14:18.978Z,64.55
2023-10-17T05:15:40.040Z,64.66
2023-10-17T05:17:02.214Z,64.58
2023-10-17T05:18:23.400Z,64.58
2023-10-17T05:19:44.511Z,64.51
2023-10-17T05:21:05.774Z,64.73
2023-10-17T05:22:26.819Z,64.86
2023-10-17T05:23:47.793Z,64.74
2023-10-17T05:25:12.010Z,64.79
2023-10-17T05:26:33.318Z,64.75
2023-10-17T05:27:55.237Z,64.87
2023-10-17T05:29:16.612Z,64.88
2023-10-17T05:30:37.587Z,64.86
2023-10-17T05:32:00.569Z,64.71
2023-10-17T05:33:21.622Z,64.82
2023-10-17T05:34:42.872Z,65.01
2023-10-17T05:36:04.681Z,64.76
2023-10-17T05:37:26.411Z,64.85
2023-10-17T05:38:48.875Z,64.74
2023-10-17T05:40:09.908Z,64.79
2023-10-17T05:41:36.529Z,64.76
2023-10-17T05:42:57.937Z,64.82
2023-10-17T05:44:21.165Z,64.76
2023-10-17T05:45:42.032Z,64.83
2023-10-17T05:47:13.765Z,64.88
2023-10-17T05:48:34.740Z,64.86
2023-10-17T05:49:57.004Z,64.86
2023-10-17T05:51:18.032Z,64.84
2023-10-17T05:52:39.241Z,64.98
2023-10-17T05:54:00.421Z,65.06
2023-10-17T05:55:29.645Z,65.05
2023-10-17T05:56:52.446Z,65.00
2023-10-17T05:58:13.660Z,65.09
2023-10-17T05:59:34.665Z,65.00
2023-10-17T06:00:56.584Z,65.20
2023-10-17T06:02:17.953Z,65.25
2023-10-17T06:03:38.727Z,65.24
2023-10-17T06:04:59.484Z,65.30
2023-10-17T06:06:31.975Z,65.23
2023-10-17T06:07:53.564Z,65.44
2023-10-17T06:09:14.983Z,65.57
2023-10-17T06:10:35.954Z,65.54
2023-10-17T06:11:57.097Z,65.58
2023-10-17T06:13:25.642Z,65.66
2023-10-17T06:14:46.317Z,65.59
2023-10-17T06:16:07.278Z,65.62
2023-10-17T06:17:23.734Z,65.49
2023-10-17T06:18:29.334Z,65.51
2023-10-17T06:19:34.190Z,65.63
2023-10-17T06:21:05.812Z,65.60
2023-10-17T06:22:14.045Z,65.62
2023-10-17T06:23:39.787Z,65.76
2023-10-17T06:24:44.853Z,65.88
2023-10-17T06:25:50.176Z,65.71
2023-10-17T06:27:13.276Z,65.76
2023-10-17T06:28:35.572Z,65.81
2023-10-17T06:29:40.938Z,65.75
2023-10-17T06:31:09.739Z,65.64
2023-10-17T06:32:24.603Z,65.82
2023-10-17T06:33:30.230Z,66.00
2023-10-17T06:34:35.488Z,65.90
2023-10-17T06:35:46.147Z,66.08
2023-10-17T06:37:00.238Z,66.06
2023-10-17T06:38:02.806Z,66.16
2023-10-17T06:39:14.320Z,66.18
2023-10-17T06:40:18.182Z,66.39
2023-10-17T06:41:29.579Z,66.34
2023-10-17T06:42:39.907Z,66.29
2023-10-17T06:43:47.959Z,66.23
2023-10-17T06:44:54.291Z,66.18
2023-10-17T06:45:59.043Z,66.07
2023-10-17T06:47:17.649Z,66.10
2023-10-17T06:48:20.241Z,66.06
2023-10-17T06:49:32.155Z,65.90
2023-10-17T06:50:53.458Z,65.87
2023-10-17T06:52:11.646Z,66.00
2023-10-17T06:53:16.668Z,66.00
2023-10-17T06:54:25.993Z,65.95
2023-10-17T06:55:44.833Z,65.73
2023-10-17T06:56:47.252Z,65.68
2023-10-17T06:57:53.729Z,65.60
2023-10-17T06:59:05.514Z,65.50
2023-10-17T07:00:18.720Z,65.39
2023-10-17T07:01:25.243Z,65.26
2023-10-17T07:02:43.325Z,65.37
2023-10-17T07:03:46.693Z,65.07
2023-10-17T07:04:51.648Z,65.03
2023-10-17T07:06:04.035Z,65.04
2023-10-17T07:07:06.684Z,64.94
2023-10-17T07:08:21.463Z,64.81
2023-10-17T07:09:26.748Z,64.61
2023-10-17T07:10:32.328Z,64.48
2023-10-17T07:11:38.161Z,64.45
2023-10-17T07:12:42.282Z,64.38
2023-10-17T07:14:07.662Z,64.45
2023-10-17T07:15:14.742Z,64.25
2023-10-17T07:16:26.744Z,64.03
2023-10-17T07:17:34.377Z,64.06
2023-10-17T07:18:46.365Z,63.92
2023-10-17T07:19:48.850Z,63.89
2023-10-17T07:21:09.927Z,63.83
2023-10-17T07:22:13.647Z,63.92
2023-10-17T07:23:16.971Z,63.71
2023-10-17T07:24:21.792Z,63.83
2023-10-17T07:25:24.997Z,63.78
2023-10-17T07:26:30.136Z,63.85
2023-10-17T07:27:35.514Z,63.75
2023-10-17T07:28:44.143Z,63.62
2023-10-17T07:29:59.908Z,63.38
2023-10-17T07:31:02.552Z,63.47
2023-10-17T07:32:16.738Z,63.39
2023-10-17T07:33:19.125Z,63.23
2023-10-17T07:34:22.746Z,63.22
2023-10-17T07:35:26.024Z,63.13
2023-10-17T07:36:29.107Z,63.11
2023-10-17T07:37:41.668Z,63.13
2023-10-17T07:38:46.850Z,62.87
2023-10-17T07:40:02.421Z,62.75
2023-10-17T07:41:15.472Z,62.65
2023-10-17T07:42:30.539Z,62.72
2023-10-17T07:43:34.619Z,62.52
2023-10-17T07:44:43.034Z,62.41
2023-10-17T07:45:57.112Z,62.42
2023-10-17T07:47:09.294Z,62.45
2023-10-17T07:48:22.226Z,62.37
2023-10-17T07:49:28.455Z,62.20
2023-10-17T07:50:30.979Z,62.27
2023-10-17T07:51:33.826Z,62.16
2023-10-17T07:52:39.871Z,62.03
2023-10-17T07:53:51.529Z,61.99
2023-10-17T07:54:56.979Z,61.96
2023-10-17T07:56:06.866Z,61.83
2023-10-17T07:57:09.218Z,61.77
2023-10-17T07:58:19.064Z,61.80
2023-10-17T07:59:32.266Z,61.75
2023-10-17T08:00:35.437Z,61.67
2023-10-17T08:01:44.247Z,61.52
2023-10-17T08:02:49.603Z,61.60
2023-10-17T08:03:57.132Z,61.49
2023-10-17T08:05:18.617Z,61.34
2023-10-17T08:06:24.422Z,61.30
2023-10-17T08:07:27.047Z,61.08
2023-10-17T08:08:34.882Z,61.13
2023-10-17T08:09:40.189Z,60.91
2023-10-17T08:10:52.972Z,60.77
2023-10-17T08:11:55.870Z,60.73
2023-10-17T08:13:02.394Z,60.74
2023-10-17T08:14:11.009Z,60.49
2023-10-17T08:15:21.077Z,60.59
2023-10-17T08:16:31.349Z,60.38
2023-10-17T08:17:36.424Z,60.30
2023-10-17T08:18:43.266Z,59.88
2023-10-17T08:20:04.125Z,59.78
2023-10-17T08:21:29.152Z,59.87
2023-10-17T08:22:51.766Z,59.53
2023-10-17T08:23:56.078Z,59.46
2023-10-17T08:25:00.534Z,59.43
2023-10-17T08:26:05.158Z,59.20
2023-10-17T08:27:14.636Z,58.94
2023-10-17T08:28:33.092Z,58.88
2023-10-17T08:29:35.997Z,58.88
2023-10-17T08:30:46.065Z,58.84
2023-10-17T08:31:52.384Z,58.65
2023-10-17T08:33:01.334Z,58.63
2023-10-17T08:34:03.941Z,58.62
2023-10-17T08:35:20.069Z,58.33
2023-10-17T08:36:25.380Z,57.74
2023-10-17T08:37:29.706Z,57.66
2023-10-17T08:38:34.541Z,57.58
2023-10-17T08:39:36.956Z,57.47
2023-10-17T08:40:40.184Z,57.54
2023-10-17T08:41:42.580Z,57.39
2023-10-17T08:42:51.366Z,57.39
2023-10-17T08:43:56.843Z,57.28
2023-10-17T08:45:05.797Z,57.51
2023-10-17T08:46:12.624Z,57.38
2023-10-17T08:47:18.401Z,57.63
2023-10-17T08:48:21.675Z,57.53
2023-10-17T08:49:25.085Z,57.39
2023-10-17T08:50:29.084Z,56.81
2023-10-17T08:51:32.107Z,56.73
2023-10-17T08:52:37.375Z,56.21
2023-10-17T08:53:40.549Z,56.31
2023-10-17T08:54:44.340Z,56.28
2023-10-17T08:55:50.059Z,56.24
2023-10-17T08:56:52.411Z,55.94
2023-10-17T08:57:55.128Z,55.73
2023-10-17T08:59:05.928Z,55.46
2023-10-17T09:00:11.912Z,55.59
2023-10-17T09:01:18.512Z,55.55
2023-10-17T09:02:30.118Z,55.32
2023-10-17T09:03:34.671Z,54.96
2023-10-17T09:04:39.607Z,54.74
2023-10-17T09:06:11.456Z,54.33
2023-10-17T09:07:33.389Z,54.46
2023-10-17T09:08:51.260Z,54.40
2023-10-17T09:09:56.042Z,54.46
2023-10-17T09:11:15.716Z,54.21
2023-10-17T09:12:28.630Z,53.87
2023-10-17T09:13:52.298Z,53.56
2023-10-17T09:14:57.945Z,53.42
2023-10-17T09:16:12.629Z,52.85
2023-10-17T09:17:19.489Z,52.39
2023-10-17T09:18:41.779Z,51.70
2023-10-17T09:19:48.850Z,51.73
2023-10-17T09:20:51.524Z,51.81
2023-10-17T09:21:55.211Z,51.77
2023-10-17T09:22:57.911Z,51.87
2023-10-17T09:24:01.938Z,51.64
2023-10-17T09:25:21.028Z,51.48
2023-10-17T09:26:25.321Z,50.98
2023-10-17T09:27:33.317Z,50.83
2023-10-17T09:28:37.345Z,50.59
2023-10-17T09:30:00.860Z,50.81
2023-10-17T09:31:13.945Z,50.45
2023-10-17T09:32:38.002Z,50.60
2023-10-17T09:33:45.331Z,50.42
2023-10-17T09:34:51.122Z,50.48
2023-10-17T09:36:00.862Z,49.90
2023-10-17T09:37:07.641Z,49.60
2023-10-17T09:38:13.354Z,49.90
2023-10-17T09:39:37.213Z,49.38
2023-10-17T09:40:49.081Z,49.15
2023-10-17T09:41:52.514Z,48.98
2023-10-17T09:42:55.284Z,48.85
2023-10-17T09:43:58.103Z,48.92
2023-10-17T09:45:04.205Z,48.46
2023-10-17T09:46:16.755Z,48.75
2023-10-17T09:47:24.551Z,48.00
2023-10-17T09:48:34.957Z,47.74
2023-10-17T09:49:45.408Z,47.45
2023-10-17T09:50:48.221Z,47.74
2023-10-17T09:51:54.354Z,47.58
2023-10-17T09:53:00.682Z,46.99
2023-10-17T09:54:06.140Z,47.10
2023-10-17T09:55:13.261Z,46.52
2023-10-17T09:56:20.872Z,45.64
2023-10-17T09:57:26.503Z,45.55
2023-10-17T09:58:33.803Z,45.73
2023-10-17T09:59:43.131Z,45.75
2023-10-17T10:00:57.771Z,45.98
2023-10-17T10:02:01.921Z,45.45
2023-10-17T10:03:15.165Z,45.57
2023-10-17T10:04:23.327Z,45.25
2023-10-17T10:05:31.365Z,44.76
2023-10-17T10:06:35.116Z,44.91
2023-10-17T10:07:37.482Z,44.40
2023-10-17T10:08:39.912Z,44.21
2023-10-17T10:09:42.236Z,43.73
2023-10-17T10:10:45.665Z,44.14
2023-10-17T10:11:51.250Z,43.72
2023-10-17T10:13:00.663Z,44.16
2023-10-17T10:14:04.796Z,44.24
2023-10-17T10:15:07.904Z,43.77
2023-10-17T10:16:10.553Z,43.23
2023-10-17T10:17:17.419Z,43.49
2023-10-17T10:18:38.039Z,43.61
2023-10-17T10:19:43.954Z,42.45
2023-10-17T10:20:59.011Z,42.51
2023-10-17T10:22:01.538Z,42.17
2023-10-17T10:23:06.270Z,42.06
2023-10-17T10:24:16.910Z,42.03
2023-10-17T10:25:21.183Z,42.24
2023-10-17T10:26:23.835Z,42.56
2023-10-17T10:27:27.351Z,42.24
2023-10-17T10:28:30.984Z,42.06
2023-10-17T10:29:34.689Z,42.23
2023-10-17T10:30:45.554Z,42.38
2023-10-17T10:31:48.180Z,42.28
2023-10-17T10:32:51.520Z,42.55
2023-10-17T10:33:56.052Z,42.27
2023-10-17T10:34:58.523Z,42.13
2023-10-17T10:36:01.706Z,40.95
2023-10-17T10:37:05.118Z,40.76
2023-10-17T10:38:07.619Z,40.21
2023-10-17T10:39:14.905Z,40.63
2023-10-17T10:40:23.664Z,41.11
2023-10-17T10:41:27.811Z,40.93
2023-10-17T10:42:45.485Z,40.81
2023-10-17T10:43:50.026Z,40.41
2023-10-17T10:44:54.380Z,40.34
2023-10-17T10:45:58.287Z,39.84
2023-10-17T10:47:01.324Z,39.74
2023-10-17T10:48:10.794Z,39.65
2023-10-17T10:49:13.361Z,40.12
2023-10-17T10:50:16.908Z,39.82
2023-10-17T10:51:19.878Z,39.68
2023-10-17T10:52:25.598Z,39.32
2023-10-17T10:53:40.686Z,39.12
2023-10-17T10:54:55.687Z,39.86
2023-10-17T10:56:04.050Z,39.51
2023-10-17T10:57:07.568Z,39.73
2023-10-17T10:58:13.759Z,39.83
2023-10-17T10:59:21.589Z,39.67
2023-10-17T11:00:24.005Z,39.38
2023-10-17T11:01:27.152Z,39.85
2023-10-17T11:02:30.954Z,39.71
2023-10-17T11:03:39.892Z,40.14
2023-10-17T11:04:44.515Z,39.90
2023-10-17T11:06:04.986Z,39.22
2023-10-17T11:07:23.261Z,39.24
2023-10-17T11:08:26.852Z,38.39
2023-10-17T11:09:30.740Z,38.11
2023-10-17T11:10:33.192Z,38.02
2023-10-17T11:11:44.992Z,38.21
2023-10-17T11:12:54.755Z,38.15
2023-10-17T11:13:58.195Z,37.74
2023-10-17T11:15:32.949Z,38.21
2023-10-17T11:16:35.391Z,38.37
2023-10-17T11:17:39.867Z,38.87
2023-10-17T11:18:45.725Z,38.80
2023-10-17T11:19:48.477Z,38.45
2023-10-17T11:20:56.483Z,37.60
2023-10-17T11:21:59.642Z,37.72
2023-10-17T11:23:14.905Z,36.43
2023-10-17T11:24:18.641Z,36.53
2023-10-17T11:25:28.300Z,36.57
2023-10-17T11:26:35.634Z,36.41
2023-10-17T11:27:41.122Z,36.35
2023-10-17T11:28:48.087Z,36.73
2023-10-17T11:29:53.378Z,36.93
2023-10-17T11:30:59.634Z,36.84
2023-10-17T11:32:02.136Z,36.94
2023-10-17T11:33:06.039Z,37.20
2023-10-17T11:34:08.752Z,37.37
2023-10-17T11:35:20.743Z,37.73
2023-10-17T11:36:24.599Z,37.72
2023-10-17T11:37:27.349Z,37.72
2023-10-17T11:39:42.771Z,38.48
2023-10-17T11:40:46.549Z,38.66
2023-10-17T11:41:54.926Z,38.34
2023-10-17T11:43:00.516Z,38.63
2023-10-17T11:44:10.691Z,38.64
2023-10-17T11:45:34.712Z,38.32
2023-10-17T11:46:50.584Z,37.75
2023-10-17T11:47:56.647Z,37.11
2023-10-17T11:49:43.030Z,38.02
2023-10-17T11:50:45.397Z,37.36
2023-10-17T11:52:15.269Z,37.77
2023-10-17T11:53:18.413Z,37.19
2023-10-17T11:54:33.872Z,37.02
2023-10-17T11:55:51.501Z,37.30
2023-10-17T11:56:54.682Z,37.30
2023-10-17T11:57:59.813Z,37.30
2023-10-17T11:59:04.570Z,37.53
2023-10-17T12:00:20.879Z,37.53
2023-10-17T12:01:24.442Z,37.68
2023-10-17T12:02:27.786Z,37.98
2023-10-17T12:03:30.316Z,37.95
2023-10-17T12:04:35.611Z,37.44
2023-10-17T12:05:41.178Z,37.79
2023-10-17T12:06:52.926Z,38.24
2023-10-17T12:07:56.153Z,38.41
2023-10-17T12:08:58.867Z,38.27
2023-10-17T12:10:06.374Z,38.49
2023-10-17T12:11:08.865Z,38.36
2023-10-17T12:12:11.260Z,38.23
2023-10-17T12:13:18.004Z,38.20
2023-10-17T12:14:21.312Z,38.14
2023-10-17T12:15:23.751Z,38.28
2023-10-17T12:16:26.434Z,38.34
2023-10-17T12:17:28.911Z,38.62
2023-10-17T12:18:31.319Z,38.04
2023-10-17T12:19:35.055Z,38.01
2023-10-17T12:20:42.065Z,37.87
2023-10-17T12:21:49.131Z,38.17
2023-10-17T12:22:51.499Z,37.74
2023-10-17T12:23:56.573Z,37.78
2023-10-17T12:24:58.969Z,37.43
2023-10-17T12:26:09.451Z,37.53
2023-10-17T12:27:14.060Z,37.99
2023-10-17T12:28:16.510Z,38.02
2023-10-17T12:29:19.181Z,37.94
2023-10-17T12:30:28.472Z,38.23
2023-10-17T12:31:31.376Z,38.30
2023-10-17T12:32:35.069Z,38.63
2023-10-17T12:33:37.830Z,38.33
2023-10-17T12:34:43.694Z,38.59
2023-10-17T12:35:47.737Z,38.19
2023-10-17T12:36:50.231Z,37.81
2023-10-17T12:37:53.439Z,38.05
2023-10-17T12:38:58.765Z,38.62
2023-10-17T12:40:01.142Z,38.83
2023-10-17T12:41:08.262Z,38.59
2023-10-17T12:42:12.061Z,38.74
2023-10-17T12:43:17.668Z,38.72
2023-10-17T12:44:19.980Z,38.83
2023-10-17T12:45:22.616Z,38.43
2023-10-17T12:46:25.021Z,37.62
2023-10-17T12:47:29.907Z,37.65
2023-10-17T12:48:32.264Z,37.48
2023-10-17T12:49:34.641Z,37.15
2023-10-17T12:50:37.100Z,37.25
2023-10-17T12:51:41.988Z,36.84
2023-10-17T12:52:44.567Z,36.79
2023-10-17T12:53:46.964Z,36.67
2023-10-17T12:54:49.283Z,36.78
2023-10-17T12:55:53.832Z,37.10
2023-10-17T12:56:56.447Z,37.04
2023-10-17T12:57:59.407Z,36.76
2023-10-17T12:59:01.754Z,36.84
2023-10-17T13:00:10.429Z,36.84
2023-10-17T13:01:14.064Z,36.49
2023-10-17T13:02:17.009Z,36.55
2023-10-17T13:03:20.281Z,36.39
2023-10-17T13:04:23.292Z,36.65
2023-10-17T13:05:27.602Z,36.53
2023-10-17T13:06:30.529Z,36.57
2023-10-17T13:07:36.146Z,36.19
2023-10-17T13:08:39.856Z,36.79
2023-10-17T13:09:42.992Z,36.56
2023-10-17T13:10:45.646Z,36.16
2023-10-17T13:11:48.848Z,36.28
2023-10-17T13:12:53.454Z,36.04
2023-10-17T13:13:56.277Z,35.75
2023-10-17T13:14:58.850Z,35.66
2023-10-17T13:16:01.391Z,35.22
2023-10-17T13:17:04.565Z,35.04
2023-10-17T13:18:09.413Z,35.42
2023-10-17T13:19:17.922Z,35.48
2023-10-17T13:20:36.945Z,35.72
2023-10-17T13:21:44.271Z,35.72
2023-10-17T13:22:50.900Z,35.88
2023-10-17T13:23:53.581Z,35.84
2023-10-17T13:24:56.821Z,36.24
2023-10-17T13:25:59.586Z,36.34
2023-10-17T13:27:17.386Z,35.79
2023-10-17T13:28:23.191Z,36.29
2023-10-17T13:29:25.814Z,36.69
2023-10-17T13:30:29.046Z,36.79
2023-10-17T13:31:31.867Z,36.22
2023-10-17T13:32:35.159Z,36.47
2023-10-17T13:33:38.573Z,36.80
2023-10-17T13:34:41.344Z,36.73
2023-10-17T13:35:43.721Z,36.73
2023-10-17T13:36:46.174Z,36.22
2023-10-17T13:37:54.590Z,36.44
2023-10-17T13:38:57.927Z,35.93
2023-10-17T13:40:02.924Z,35.80
2023-10-17T13:41:07.826Z,36.15
2023-10-17T13:42:11.229Z,36.23
2023-10-17T13:43:14.923Z,36.88
2023-10-17T13:44:17.389Z,36.94
2023-10-17T13:45:25.002Z,37.19
2023-10-17T13:46:27.714Z,37.11
2023-10-17T13:47:31.293Z,37.25
2023-10-17T13:48:34.082Z,37.12
2023-10-17T13:49:39.034Z,37.35
2023-10-17T13:50:41.441Z,37.35
2023-10-17T13:51:47.945Z,37.48
2023-10-17T13:52:53.947Z,37.45
2023-10-17T13:53:58.666Z,37.20
2023-10-17T13:55:03.739Z,37.31
2023-10-17T13:56:12.855Z,37.28
2023-10-17T13:57:18.065Z,37.46
2023-10-17T13:58:20.550Z,37.01
2023-10-17T13:59:39.989Z,37.51
2023-10-17T14:00:47.593Z,37.17
2023-10-17T14:01:53.953Z,37.16
2023-10-17T14:02:56.627Z,37.32
2023-10-17T14:04:04.666Z,37.36
2023-10-17T14:06:51.864Z,37.11
2023-10-17T14:07:57.372Z,37.09
2023-10-17T14:09:01.608Z,37.29
2023-10-17T14:10:10.471Z,37.15
2023-10-17T14:11:19.326Z,37.44
2023-10-17T14:12:21.836Z,37.31
2023-10-17T14:13:24.796Z,37.48
2023-10-17T14:14:27.239Z,37.51
2023-10-17T14:15:29.905Z,37.96
2023-10-17T14:16:32.709Z,37.65
2023-10-17T14:17:36.040Z,37.70
2023-10-17T14:18:42.211Z,37.69
2023-10-17T14:19:50.959Z,37.75
2023-10-17T14:21:12.067Z,37.81
2023-10-17T14:22:14.516Z,38.20
2023-10-17T14:23:28.251Z,38.16
2023-10-17T14:24:49.291Z,37.99
2023-10-17T14:26:04.452Z,38.36
2023-10-17T14:27:13.678Z,38.26
2023-10-17T14:28:17.755Z,38.35
2023-10-17T14:29:24.547Z,38.27
2023-10-17T14:30:27.856Z,38.56
2023-10-17T14:31:33.243Z,38.72
2023-10-17T14:32:36.754Z,38.72
2023-10-17T14:33:39.093Z,38.65
2023-10-17T14:34:43.329Z,38.35
2023-10-17T14:35:45.805Z,38.53
2023-10-17T14:36:48.744Z,38.48
2023-10-17T14:37:51.297Z,38.79
2023-10-17T14:38:54.033Z,38.70
2023-10-17T14:39:57.395Z,38.94
2023-10-17T14:41:00.184Z,38.66